Time;durP1;ratioP1;P1;durP2;ratioP2;P2;SDS_P1;SDS_P2;PMS_P1;PMS_P2;Temp;Humidity;BMP_temperature;BMP_pressure;BME280_temperature;BME280_humidity;BME280_pressure;Samples;Min_cycle;Max_cycle;Signal;HPM_P1;HPM_P2
2021/08/13 00:00:58;;;;;;;9.63;8.73;;;22.10;99.90;;;;;;9747425;30;20221;-82
2021/08/13 00:06:01;;;;;;;9.30;8.40;;;22.10;99.90;;;;;;9727501;30;20250;-81
2021/08/13 00:11:05;;;;;;;9.20;8.50;;;22.10;99.90;;;;;;9714378;30;20676;-82
2021/08/13 00:16:07;;;;;;;9.63;8.77;;;22.10;99.90;;;;;;9724778;30;20268;-82
2021/08/13 00:21:10;;;;;;;9.67;8.43;;;22.10;99.90;;;;;;9716631;30;20215;-82
2021/08/13 00:26:14;;;;;;;10.13;8.10;;;22.10;99.90;;;;;;9679573;30;20242;-81
2021/08/13 00:31:16;;;;;;;9.30;8.50;;;22.00;99.90;;;;;;9689696;30;20318;-81
2021/08/13 00:36:19;;;;;;;9.00;8.17;;;22.00;99.90;;;;;;9691659;30;20242;-81
2021/08/13 00:41:23;;;;;;;9.13;8.33;;;22.00;99.90;;;;;;9678986;30;20216;-81
2021/08/13 00:46:28;;;;;;;9.03;8.33;;;22.00;99.90;;;;;;9687973;30;20744;-81
2021/08/13 00:51:45;;;;;;;9.10;8.20;;;22.00;99.90;;;;;;9695280;30;20225;-81
2021/08/13 00:56:50;;;;;;;9.67;8.87;;;21.90;99.90;;;;;;9718981;30;20576;-81
2021/08/13 01:02:25;;;;;;;9.33;8.43;;;21.90;99.90;;;;;;9688133;30;20333;-81
2021/08/13 01:07:41;;;;;;;8.90;8.20;;;21.90;99.90;;;;;;9722686;30;20233;-81
2021/08/13 01:12:56;;;;;;;8.57;7.87;;;21.80;99.90;;;;;;9709711;30;20214;-81
2021/08/13 01:18:07;;;;;;;8.83;8.03;;;21.80;99.90;;;;;;9692164;30;20242;-81
2021/08/13 01:23:16;;;;;;;10.83;9.10;;;21.80;99.90;;;;;;9684779;30;20249;-81
2021/08/13 01:28:32;;;;;;;9.30;8.50;;;21.70;99.90;;;;;;9705371;30;20225;-81
2021/08/13 01:33:36;;;;;;;10.67;9.70;;;21.70;99.90;;;;;;9699873;30;20244;-82
2021/08/13 01:38:40;;;;;;;9.17;8.43;;;21.60;99.90;;;;;;9707810;30;20214;-81
2021/08/13 01:43:44;;;;;;;9.17;8.37;;;21.60;99.90;;;;;;9700977;30;20725;-81
2021/08/13 01:48:52;;;;;;;10.10;8.73;;;21.60;99.90;;;;;;9709434;30;20213;-82
2021/08/13 01:53:59;;;;;;;9.60;8.70;;;21.60;99.90;;;;;;9697591;30;20676;-81
2021/08/13 01:59:02;;;;;;;10.10;9.10;;;21.50;99.90;;;;;;9701210;30;20309;-81
2021/08/13 02:04:10;;;;;;;10.17;9.27;;;21.50;99.90;;;;;;9745923;30;20240;-82
2021/08/13 02:09:16;;;;;;;9.83;8.80;;;21.50;99.90;;;;;;9719943;30;20692;-81
2021/08/13 02:14:18;;;;;;;10.63;8.93;;;21.40;99.90;;;;;;9711966;30;20230;-82
2021/08/13 02:19:28;;;;;;;9.37;8.57;;;21.40;99.90;;;;;;9685667;30;20241;-81
2021/08/13 02:24:31;;;;;;;9.73;8.93;;;21.50;99.90;;;;;;9689289;30;20288;-81
2021/08/13 02:29:41;;;;;;;11.70;8.67;;;21.50;99.90;;;;;;9688424;30;20214;-82
2021/08/13 02:34:47;;;;;;;8.83;8.10;;;21.60;99.90;;;;;;9694474;30;20328;-82
2021/08/13 02:39:59;;;;;;;10.17;9.17;;;21.60;99.90;;;;;;9703143;30;20292;-82
2021/08/13 02:45:03;;;;;;;10.27;9.27;;;21.60;99.90;;;;;;9691373;30;20243;-82
2021/08/13 02:50:13;;;;;;;9.43;8.63;;;21.60;99.90;;;;;;9694940;30;20270;-82
2021/08/13 02:55:19;;;;;;;10.30;9.30;;;21.60;99.90;;;;;;9696081;30;20245;-82
2021/08/13 03:00:21;;;;;;;10.27;9.47;;;21.60;99.90;;;;;;9708684;30;20213;-82
2021/08/13 03:05:25;;;;;;;10.50;9.23;;;21.60;99.90;;;;;;9673176;30;20270;-82
2021/08/13 03:10:33;;;;;;;8.70;8.00;;;21.60;99.90;;;;;;9689437;30;20685;-82
2021/08/13 03:15:37;;;;;;;9.13;8.20;;;21.70;99.90;;;;;;9673169;30;20334;-82
2021/08/13 03:20:42;;;;;;;9.77;8.90;;;21.60;99.90;;;;;;9675206;30;20210;-82
2021/08/13 03:25:45;;;;;;;10.83;9.30;;;21.70;99.90;;;;;;9705966;30;20244;-82
2021/08/13 03:30:53;;;;;;;10.13;9.13;;;21.70;99.90;;;;;;9695261;30;20215;-82
2021/08/13 03:36:02;;;;;;;9.77;8.90;;;21.80;99.90;;;;;;9675495;30;20316;-82
2021/08/13 03:41:06;;;;;;;10.13;9.23;;;21.80;99.90;;;;;;9699866;30;20219;-82
2021/08/13 03:46:08;;;;;;;9.50;8.80;;;21.80;99.90;;;;;;9678875;30;20277;-82
2021/08/13 03:51:13;;;;;;;9.57;8.87;;;21.80;99.90;;;;;;9690085;30;20225;-83
2021/08/13 03:56:15;;;;;;;11.47;10.47;;;21.90;99.90;;;;;;9725558;30;20317;-82
2021/08/13 04:01:17;;;;;;;11.07;10.07;;;21.90;99.90;;;;;;9693755;30;20219;-82
2021/08/13 04:06:21;;;;;;;11.00;10.10;;;21.90;99.90;;;;;;9668027;30;20246;-82
2021/08/13 04:11:23;;;;;;;10.47;9.37;;;22.00;99.90;;;;;;9740275;30;20284;-82
2021/08/13 04:16:26;;;;;;;10.53;9.73;;;21.90;99.90;;;;;;9718677;30;20241;-82
2021/08/13 04:21:32;;;;;;;10.57;9.70;;;21.90;99.90;;;;;;9706096;30;20601;-82
2021/08/13 04:26:35;;;;;;;10.67;9.77;;;21.90;99.90;;;;;;9700958;30;20280;-82
2021/08/13 04:31:38;;;;;;;10.90;10.00;;;21.90;99.90;;;;;;9685425;30;20489;-83
2021/08/13 04:36:45;;;;;;;11.80;10.70;;;21.90;99.90;;;;;;9669761;30;20261;-83
2021/08/13 04:41:47;;;;;;;11.27;10.37;;;21.90;99.90;;;;;;9672515;30;20312;-83
2021/08/13 04:46:52;;;;;;;10.87;10.07;;;21.90;99.90;;;;;;9665194;30;20304;-83
2021/08/13 04:51:56;;;;;;;12.23;10.93;;;21.90;99.90;;;;;;9680623;30;20230;-83
2021/08/13 04:56:59;;;;;;;11.10;10.10;;;21.90;99.90;;;;;;9666957;30;20231;-82
2021/08/13 05:02:02;;;;;;;11.40;10.33;;;21.90;99.90;;;;;;9669679;30;20729;-82
2021/08/13 05:07:06;;;;;;;10.27;9.43;;;21.90;99.90;;;;;;9696590;30;20254;-82
2021/08/13 05:12:08;;;;;;;11.73;10.70;;;21.90;99.90;;;;;;9676318;30;20238;-82
2021/08/13 05:17:11;;;;;;;10.93;10.03;;;21.90;99.90;;;;;;9680880;30;20242;-82
2021/08/13 05:22:14;;;;;;;12.30;10.10;;;21.90;99.90;;;;;;9680739;30;20215;-83
2021/08/13 05:27:16;;;;;;;10.87;9.87;;;21.80;99.90;;;;;;9680907;30;20265;-82
2021/08/13 05:32:19;;;;;;;10.70;9.90;;;21.90;99.90;;;;;;9681158;30;20211;-82
2021/08/13 05:37:23;;;;;;;10.80;9.77;;;21.90;99.90;;;;;;9727566;25;20743;-81
2021/08/13 05:42:26;;;;;;;10.77;9.87;;;22.00;99.90;;;;;;9710729;30;20719;-81
2021/08/13 05:47:28;;;;;;;11.43;10.20;;;22.10;99.90;;;;;;9713901;30;20238;-82
2021/08/13 05:52:32;;;;;;;17.00;11.03;;;22.20;99.90;;;;;;9682007;30;20222;-81
2021/08/13 05:57:34;;;;;;;12.87;10.33;;;22.20;99.90;;;;;;9665082;30;20700;-82
2021/08/13 06:02:37;;;;;;;11.77;10.77;;;22.30;99.90;;;;;;9685057;30;20207;-81
2021/08/13 06:07:41;;;;;;;11.30;10.40;;;22.40;99.90;;;;;;9706597;30;20233;-82
2021/08/13 06:12:43;;;;;;;11.60;10.50;;;22.40;99.90;;;;;;9715719;30;20213;-82
2021/08/13 06:17:45;;;;;;;11.97;10.80;;;22.40;99.90;;;;;;9716862;30;20230;-82
2021/08/13 06:22:50;;;;;;;12.80;11.50;;;22.40;99.90;;;;;;9717936;30;20214;-81
2021/08/13 06:27:53;;;;;;;11.73;10.63;;;22.50;99.90;;;;;;9715143;30;20254;-81
2021/08/13 06:32:55;;;;;;;11.33;10.30;;;22.70;99.90;;;;;;9712564;30;20325;-81
2021/08/13 06:38:02;;;;;;;11.23;10.23;;;23.00;99.90;;;;;;9713826;30;20250;-82
2021/08/13 06:43:05;;;;;;;11.70;10.70;;;23.30;99.90;;;;;;9712872;30;20684;-81
2021/08/13 06:48:09;;;;;;;11.63;10.63;;;23.40;99.90;;;;;;9712532;30;20229;-82
2021/08/13 06:53:13;;;;;;;11.83;10.70;;;23.40;99.90;;;;;;9729239;30;20253;-82
2021/08/13 06:58:15;;;;;;;12.40;11.20;;;23.40;99.90;;;;;;9713951;30;20650;-81
2021/08/13 07:03:18;;;;;;;12.77;11.57;;;23.30;99.90;;;;;;9714629;30;20558;-82
2021/08/13 07:08:22;;;;;;;11.30;10.40;;;23.30;99.90;;;;;;9730405;30;20245;-82
2021/08/13 07:13:32;;;;;;;12.30;11.10;;;23.30;99.90;;;;;;9713646;30;20210;-82
2021/08/13 07:18:35;;;;;;;11.20;10.30;;;23.30;99.90;;;;;;9713476;30;20227;-82
2021/08/13 07:23:39;;;;;;;14.30;12.83;;;23.50;99.90;;;;;;9716212;30;20688;-82
2021/08/13 07:28:44;;;;;;;12.13;11.07;;;23.80;99.90;;;;;;9726762;30;20229;-83
2021/08/13 07:33:46;;;;;;;11.40;10.50;;;24.00;99.90;;;;;;9704231;30;20237;-81
2021/08/13 07:38:51;;;;;;;11.70;10.80;;;24.20;99.90;;;;;;9694851;30;20734;-81
2021/08/13 07:43:53;;;;;;;12.00;11.00;;;24.30;99.90;;;;;;9709315;30;20704;-82
2021/08/13 07:48:55;;;;;;;12.70;11.40;;;24.50;99.90;;;;;;9710498;30;20275;-82
2021/08/13 07:53:59;;;;;;;11.97;11.00;;;24.70;99.90;;;;;;9700313;30;20628;-81
2021/08/13 07:59:02;;;;;;;12.60;11.40;;;24.90;99.90;;;;;;9693597;30;20214;-82
2021/08/13 08:04:04;;;;;;;12.97;11.60;;;25.20;99.90;;;;;;9698861;30;20396;-82
2021/08/13 08:09:07;;;;;;;12.57;10.87;;;25.40;99.90;;;;;;9712116;30;20225;-81
2021/08/13 08:14:09;;;;;;;12.83;11.40;;;25.70;99.90;;;;;;9709603;30;20774;-83
2021/08/13 08:19:12;;;;;;;18.73;11.77;;;25.90;99.90;;;;;;9715945;30;20206;-82
2021/08/13 08:24:15;;;;;;;13.33;12.13;;;26.10;99.90;;;;;;9719193;30;20662;-82
2021/08/13 08:29:17;;;;;;;10.97;9.87;;;26.40;99.90;;;;;;9720733;30;20273;-83
2021/08/13 08:34:19;;;;;;;11.03;9.63;;;26.90;99.90;;;;;;9718045;30;20264;-83
2021/08/13 08:39:23;;;;;;;13.53;11.33;;;27.30;99.90;;;;;;9718282;30;20207;-82
2021/08/13 08:44:25;;;;;;;11.77;10.53;;;27.70;99.90;;;;;;9720126;30;20246;-81
2021/08/13 08:49:31;;;;;;;10.70;9.70;;;28.00;99.90;;;;;;9739595;30;20264;-82
2021/08/13 08:54:36;;;;;;;10.30;9.43;;;28.00;99.90;;;;;;9738867;30;20226;-82
2021/08/13 08:59:38;;;;;;;10.97;10.00;;;28.10;99.90;;;;;;9738992;30;20268;-82
2021/08/13 09:04:40;;;;;;;9.87;8.97;;;28.10;99.50;;;;;;9721954;30;20242;-83
2021/08/13 09:09:43;;;;;;;10.80;9.60;;;28.00;99.50;;;;;;9736997;30;20202;-82
2021/08/13 09:14:45;;;;;;;9.77;8.90;;;27.90;99.70;;;;;;9737344;30;20229;-82
2021/08/13 09:19:50;;;;;;;9.97;9.07;;;27.70;99.90;;;;;;9736638;30;20268;-83
2021/08/13 09:24:55;;;;;;;10.53;9.60;;;27.60;99.80;;;;;;9738706;30;20313;-82
2021/08/13 09:30:17;;;;;;;11.00;9.90;;;27.80;99.70;;;;;;9736510;30;20210;-83
2021/08/13 09:35:32;;;;;;;11.17;9.77;;;28.00;99.20;;;;;;9700937;30;20260;-82
2021/08/13 09:40:43;;;;;;;11.97;10.83;;;28.40;98.80;;;;;;9712251;30;20203;-82
2021/08/13 09:45:45;;;;;;;10.33;8.80;;;28.90;98.80;;;;;;9700327;30;20405;-83
2021/08/13 09:50:48;;;;;;;9.40;8.40;;;29.20;97.20;;;;;;9686541;30;20589;-83
2021/08/13 09:55:51;;;;;;;10.30;8.80;;;29.50;97.80;;;;;;9680192;30;20711;-83
2021/08/13 10:00:55;;;;;;;9.73;8.77;;;29.70;97.60;;;;;;9717609;30;20223;-83
2021/08/13 10:06:05;;;;;;;11.53;8.90;;;30.00;97.30;;;;;;9711459;30;20240;-83
2021/08/13 10:11:13;;;;;;;8.20;7.50;;;30.20;96.70;;;;;;9701862;30;20218;-83
2021/08/13 10:16:25;;;;;;;9.80;8.80;;;30.30;95.90;;;;;;9701285;30;20288;-84
2021/08/13 10:21:31;;;;;;;10.47;8.40;;;30.50;95.80;;;;;;9716325;30;20213;-83
2021/08/13 10:26:37;;;;;;;9.30;8.47;;;30.50;96.00;;;;;;9710361;30;20238;-82
2021/08/13 10:31:41;;;;;;;9.33;8.43;;;30.20;95.90;;;;;;9731267;30;20214;-83
2021/08/13 10:36:47;;;;;;;9.43;8.53;;;30.00;95.90;;;;;;9714828;30;20321;-83
2021/08/13 10:41:54;;;;;;;8.40;7.70;;;29.70;96.40;;;;;;9731119;30;20206;-82
2021/08/13 10:47:08;;;;;;;10.80;8.87;;;29.50;96.70;;;;;;9714022;30;20317;-83
2021/08/13 10:52:11;;;;;;;10.33;9.33;;;29.10;97.10;;;;;;9701952;30;20218;-82
2021/08/13 10:57:38;;;;;;;9.63;8.83;;;28.90;97.20;;;;;;9665394;30;20281;-83
2021/08/13 11:02:41;;;;;;;11.17;9.80;;;28.60;97.70;;;;;;9678869;30;20207;-82
2021/08/13 11:08:00;;;;;;;10.87;9.87;;;28.40;97.60;;;;;;9721428;30;20313;-83
2021/08/13 11:13:20;;;;;;;10.03;9.23;;;28.20;98.00;;;;;;9714884;30;20194;-83
2021/08/13 11:18:38;;;;;;;10.67;9.33;;;28.00;97.90;;;;;;9713947;30;20202;-83
2021/08/13 11:23:57;;;;;;;11.90;9.87;;;27.90;97.90;;;;;;9712914;30;20210;-83
2021/08/13 11:29:34;;;;;;;10.83;9.77;;;27.80;98.80;;;;;;9713336;30;20250;-82
2021/08/13 11:35:01;;;;;;;11.13;10.23;;;27.70;98.60;;;;;;9754764;25;20356;-82
2021/08/13 11:40:07;;;;;;;11.33;10.07;;;27.60;98.50;;;;;;9705541;30;20206;-82
2021/08/13 11:45:11;;;;;;;10.57;9.63;;;27.60;98.80;;;;;;9701737;30;20253;-83
2021/08/13 11:50:17;;;;;;;14.70;10.80;;;27.70;98.50;;;;;;9701648;30;20642;-83
2021/08/13 11:55:24;;;;;;;9.70;8.80;;;27.80;98.00;;;;;;9729590;30;20601;-83
2021/08/13 12:00:28;;;;;;;13.23;8.57;;;27.80;98.70;;;;;;9704025;30;20217;-83
2021/08/13 12:05:34;;;;;;;11.60;10.40;;;27.80;98.70;;;;;;9718665;30;20744;-83
2021/08/13 12:10:37;;;;;;;12.57;9.80;;;27.70;98.90;;;;;;9703629;30;20740;-83
2021/08/13 12:15:43;;;;;;;11.33;10.23;;;27.70;99.00;;;;;;9676438;30;20701;-83
2021/08/13 12:20:49;;;;;;;10.23;9.23;;;27.70;99.40;;;;;;9689014;30;20215;-83
2021/08/13 12:25:53;;;;;;;11.13;10.13;;;27.70;99.30;;;;;;9676057;30;20242;-83
2021/08/13 12:31:05;;;;;;;10.57;9.67;;;27.80;99.30;;;;;;9719502;30;20252;-83
2021/08/13 12:36:16;;;;;;;11.60;9.73;;;27.80;99.20;;;;;;9733779;30;20296;-83
2021/08/13 12:41:21;;;;;;;9.40;8.50;;;27.80;99.60;;;;;;9706876;30;20293;-83
2021/08/13 12:46:28;;;;;;;12.43;9.63;;;27.90;99.90;;;;;;9718033;30;20272;-82
2021/08/13 12:51:32;;;;;;;10.90;10.00;;;27.90;99.90;;;;;;9695225;30;20582;-82
2021/08/13 12:56:38;;;;;;;11.50;9.20;;;28.00;99.90;;;;;;9710804;30;20222;-83
2021/08/13 13:01:40;;;;;;;11.70;10.57;;;28.20;99.50;;;;;;9701784;30;20636;-83
2021/08/13 13:06:45;;;;;;;10.47;9.57;;;28.40;99.20;;;;;;9715639;30;20242;-83
2021/08/13 13:11:48;;;;;;;10.03;9.20;;;28.40;98.90;;;;;;9719571;30;20588;-83
2021/08/13 13:17:04;;;;;;;9.30;8.50;;;28.40;98.90;;;;;;9720964;30;20226;-83
2021/08/13 13:22:21;;;;;;;10.03;9.00;;;28.30;99.30;;;;;;9751624;30;20214;-83
2021/08/13 13:27:24;;;;;;;10.00;9.10;;;28.10;99.70;;;;;;9735202;30;20737;-83
2021/08/13 13:32:38;;;;;;;9.27;8.47;;;28.00;99.20;;;;;;9720222;30;20341;-84
2021/08/13 13:38:08;;;;;;;8.20;7.50;;;28.00;99.00;;;;;;9735337;30;20250;-83
2021/08/13 13:43:12;;;;;;;8.80;7.30;;;28.10;98.80;;;;;;9737063;30;20222;-83
2021/08/13 13:48:14;;;;;;;8.27;7.47;;;28.10;98.80;;;;;;9738497;30;20246;-83
2021/08/13 13:53:18;;;;;;;9.17;8.20;;;28.30;98.90;;;;;;9725215;30;20223;-83
2021/08/13 13:58:20;;;;;;;7.63;7.00;;;28.50;98.00;;;;;;9722260;30;20230;-83
2021/08/13 14:03:22;;;;;;;8.27;7.27;;;28.50;97.70;;;;;;9721696;30;20489;-83
2021/08/13 14:08:26;;;;;;;8.27;7.50;;;28.70;97.00;;;;;;9707389;30;20254;-83
2021/08/13 14:13:29;;;;;;;8.70;7.80;;;28.90;96.90;;;;;;9736094;30;20305;-83
2021/08/13 14:18:32;;;;;;;9.23;8.40;;;28.90;96.40;;;;;;9721356;30;20253;-83
2021/08/13 14:23:35;;;;;;;8.60;7.90;;;28.70;96.80;;;;;;9724643;30;20242;-83
2021/08/13 14:28:38;;;;;;;7.87;7.17;;;28.60;95.90;;;;;;9708342;30;20248;-83
2021/08/13 14:33:40;;;;;;;9.90;8.90;;;28.50;95.60;;;;;;9721440;30;20297;-83
2021/08/13 14:38:44;;;;;;;8.50;7.70;;;28.50;95.40;;;;;;9708307;30;20250;-83
2021/08/13 14:43:46;;;;;;;10.50;7.70;;;28.40;95.80;;;;;;9728700;30;20210;-84
2021/08/13 14:48:49;;;;;;;8.37;7.57;;;28.30;95.40;;;;;;9723459;30;20316;-83
2021/08/13 14:53:53;;;;;;;8.23;7.53;;;28.20;95.40;;;;;;9718444;30;20214;-83
2021/08/13 14:58:56;;;;;;;8.70;7.80;;;28.10;95.60;;;;;;9716037;30;20210;-83
2021/08/13 15:03:58;;;;;;;10.60;8.13;;;28.10;95.60;;;;;;9711004;30;20221;-83
2021/08/13 15:09:02;;;;;;;7.47;6.77;;;28.00;95.40;;;;;;9725125;30;20234;-83
2021/08/13 15:14:08;;;;;;;9.53;8.43;;;27.90;95.30;;;;;;9709110;30;20260;-83
2021/08/13 15:19:11;;;;;;;9.87;8.27;;;27.90;95.40;;;;;;9695180;30;20225;-83
2021/08/13 15:24:14;;;;;;;7.00;6.47;;;27.80;95.30;;;;;;9708359;30;20238;-83
2021/08/13 15:29:16;;;;;;;9.17;8.37;;;27.80;95.20;;;;;;9697357;30;20245;-83
2021/08/13 15:34:19;;;;;;;8.33;7.63;;;27.80;95.80;;;;;;9724248;30;20249;-83
2021/08/13 15:39:22;;;;;;;9.70;8.00;;;27.80;95.90;;;;;;9720780;30;20579;-83
2021/08/13 15:44:24;;;;;;;10.70;8.70;;;27.70;96.10;;;;;;9703906;30;20336;-82
2021/08/13 15:49:26;;;;;;;9.67;8.53;;;27.70;96.20;;;;;;9719451;30;20245;-82
2021/08/13 15:54:30;;;;;;;9.67;8.50;;;27.70;96.10;;;;;;9715059;30;20258;-83
2021/08/13 15:59:32;;;;;;;8.00;7.27;;;27.70;96.00;;;;;;9712307;30;20226;-82
2021/08/13 16:04:35;;;;;;;9.07;8.30;;;27.70;96.70;;;;;;9729966;30;20237;-82
2021/08/13 16:09:38;;;;;;;9.17;8.23;;;27.70;96.80;;;;;;9715767;30;20284;-82
2021/08/13 16:14:41;;;;;;;9.20;8.37;;;27.60;96.60;;;;;;9729250;30;20245;-82
2021/08/13 16:19:43;;;;;;;9.20;7.67;;;27.60;96.90;;;;;;9715145;30;20230;-82
2021/08/13 16:24:47;;;;;;;9.37;8.50;;;27.60;97.20;;;;;;9698861;30;20240;-82
2021/08/13 16:29:49;;;;;;;9.50;8.70;;;27.50;97.70;;;;;;9731099;30;20688;-82
2021/08/13 16:34:51;;;;;;;9.53;8.53;;;27.40;97.40;;;;;;9695251;30;20460;-82
2021/08/13 16:39:54;;;;;;;9.67;7.70;;;27.40;97.70;;;;;;9714609;30;20214;-82
2021/08/13 16:44:56;;;;;;;9.73;8.83;;;27.40;98.00;;;;;;9717388;30;20222;-82
2021/08/13 16:49:58;;;;;;;9.50;8.70;;;27.30;97.70;;;;;;9733342;30;20234;-82
2021/08/13 16:55:03;;;;;;;9.63;8.83;;;27.20;97.70;;;;;;9737924;30;20230;-82
2021/08/13 17:00:10;;;;;;;9.50;8.60;;;27.20;97.70;;;;;;9725206;30;20268;-82
2021/08/13 17:05:12;;;;;;;9.20;8.40;;;27.10;97.80;;;;;;9740131;30;20766;-82
2021/08/13 17:10:16;;;;;;;9.00;8.30;;;27.10;98.30;;;;;;9723315;30;20222;-82
2021/08/13 17:15:18;;;;;;;10.10;9.10;;;27.10;98.20;;;;;;9707657;30;20226;-82
2021/08/13 17:20:22;;;;;;;9.67;8.67;;;27.00;98.40;;;;;;9728648;30;20221;-82
2021/08/13 17:25:26;;;;;;;9.47;8.50;;;26.90;98.30;;;;;;9689807;30;20624;-83
2021/08/13 17:30:28;;;;;;;10.43;8.47;;;26.90;98.60;;;;;;9704868;30;20211;-82
2021/08/13 17:35:30;;;;;;;10.33;8.77;;;26.80;98.40;;;;;;9685445;30;20243;-82
2021/08/13 17:40:34;;;;;;;9.33;8.40;;;26.70;99.00;;;;;;9698861;30;20203;-82
2021/08/13 17:45:36;;;;;;;10.50;9.37;;;26.60;99.20;;;;;;9680433;30;20241;-82
2021/08/13 17:50:39;;;;;;;10.27;9.27;;;26.50;98.90;;;;;;9682211;30;20211;-82
2021/08/13 17:55:43;;;;;;;20.13;13.20;;;26.40;99.60;;;;;;9685341;30;20740;-82
2021/08/13 18:00:46;;;;;;;104.47;49.87;;;26.40;99.30;;;;;;9680972;30;20581;-82
2021/08/13 18:05:49;;;;;;;24.83;17.13;;;26.30;99.80;;;;;;9698138;30;20241;-82
2021/08/13 18:10:52;;;;;;;38.00;23.17;;;26.20;99.60;;;;;;9677960;30;20957;-82
2021/08/13 18:15:56;;;;;;;82.90;45.57;;;26.20;99.60;;;;;;9703377;30;20321;-82
2021/08/13 18:20:59;;;;;;;134.07;61.03;;;26.10;99.90;;;;;;9686742;30;20221;-82
2021/08/13 18:26:02;;;;;;;47.50;25.43;;;26.00;99.90;;;;;;9680659;30;20235;-82
2021/08/13 18:31:04;;;;;;;20.70;13.50;;;25.80;99.90;;;;;;9683589;30;20379;-82
2021/08/13 18:36:06;;;;;;;12.10;10.80;;;25.80;99.90;;;;;;9691946;30;20322;-82
2021/08/13 18:41:11;;;;;;;14.13;10.13;;;25.60;99.90;;;;;;9684729;30;20222;-82
2021/08/13 18:46:13;;;;;;;15.53;11.40;;;25.60;99.90;;;;;;9666406;30;20238;-83
2021/08/13 18:51:16;;;;;;;10.87;9.83;;;25.50;99.90;;;;;;9696851;30;20305;-82
2021/08/13 18:56:21;;;;;;;15.47;12.27;;;25.50;99.90;;;;;;9714529;30;20703;-82
2021/08/13 19:01:25;;;;;;;14.03;11.97;;;25.50;99.70;;;;;;9710866;30;20217;-82
2021/08/13 19:06:28;;;;;;;13.67;11.00;;;25.40;99.90;;;;;;9730506;30;20225;-82
2021/08/13 19:11:33;;;;;;;10.10;8.80;;;25.30;99.90;;;;;;9711805;30;20220;-83
2021/08/13 19:16:35;;;;;;;9.60;8.70;;;25.30;99.90;;;;;;9690327;30;20309;-82
2021/08/13 19:21:38;;;;;;;21.63;16.20;;;25.10;99.90;;;;;;9694152;30;20215;-82
2021/08/13 19:26:42;;;;;;;10.53;8.00;;;25.10;99.90;;;;;;9706052;30;20226;-82
2021/08/13 19:31:44;;;;;;;9.60;7.57;;;25.00;99.40;;;;;;9668816;30;20344;-82
2021/08/13 19:36:46;;;;;;;9.20;8.50;;;25.00;99.30;;;;;;9679750;30;20630;-82
2021/08/13 19:41:49;;;;;;;9.97;8.37;;;25.00;99.90;;;;;;9693861;30;20225;-82
2021/08/13 19:46:51;;;;;;;8.10;7.50;;;25.00;99.90;;;;;;9676807;30;20234;-82
2021/08/13 19:51:53;;;;;;;8.60;7.93;;;24.90;99.90;;;;;;9706339;30;20213;-82
2021/08/13 19:56:57;;;;;;;9.87;8.90;;;24.80;99.90;;;;;;9695460;30;20233;-82
2021/08/13 20:01:59;;;;;;;9.10;8.40;;;24.80;99.90;;;;;;9697786;30;20214;-82
2021/08/13 20:07:01;;;;;;;8.60;7.90;;;24.70;99.90;;;;;;9717535;30;20232;-82
2021/08/13 20:12:06;;;;;;;8.00;7.20;;;24.70;99.90;;;;;;9716381;30;20656;-82
2021/08/13 20:17:08;;;;;;;10.00;8.67;;;24.70;99.10;;;;;;9715501;30;20230;-82
2021/08/13 20:22:11;;;;;;;8.23;7.53;;;24.70;99.90;;;;;;9684110;30;20681;-82
2021/08/13 20:27:14;;;;;;;8.30;7.60;;;24.60;99.20;;;;;;9701680;30;20940;-82
2021/08/13 20:32:16;;;;;;;8.23;7.53;;;24.60;99.30;;;;;;9714127;30;20218;-82
2021/08/13 20:37:18;;;;;;;7.67;7.07;;;24.60;99.70;;;;;;9721752;30;20244;-82
2021/08/13 20:42:22;;;;;;;8.17;7.47;;;24.50;99.90;;;;;;9717448;30;20246;-82
2021/08/13 20:47:24;;;;;;;7.80;7.00;;;24.40;99.90;;;;;;9697838;30;20241;-82
2021/08/13 20:52:26;;;;;;;8.20;7.40;;;24.30;99.90;;;;;;9697959;30;20740;-82
2021/08/13 20:57:30;;;;;;;9.10;7.13;;;24.20;99.90;;;;;;9689737;30;20250;-82
2021/08/13 21:02:32;;;;;;;17.67;9.07;;;24.10;99.90;;;;;;9695747;30;20218;-82
2021/08/13 21:07:34;;;;;;;9.00;8.10;;;24.00;99.90;;;;;;9690782;30;20227;-82
2021/08/13 21:12:37;;;;;;;8.93;6.93;;;24.00;99.90;;;;;;9675114;30;20238;-82
2021/08/13 21:17:39;;;;;;;8.10;7.30;;;23.90;99.90;;;;;;9696627;30;20250;-82
2021/08/13 21:22:42;;;;;;;8.20;7.40;;;23.80;99.90;;;;;;9706982;30;20211;-82
2021/08/13 21:27:45;;;;;;;7.50;6.90;;;23.70;99.90;;;;;;9681838;30;20703;-82
2021/08/13 21:32:48;;;;;;;7.17;6.47;;;23.70;99.90;;;;;;9679709;30;20700;-82
2021/08/13 21:37:50;;;;;;;7.70;7.10;;;23.70;99.90;;;;;;9685811;30;20253;-82
2021/08/13 21:42:53;;;;;;;7.30;6.53;;;23.60;99.90;;;;;;9695344;30;20210;-82
2021/08/13 21:47:55;;;;;;;8.07;7.37;;;23.50;99.90;;;;;;9678981;30;20246;-82
2021/08/13 21:52:57;;;;;;;8.83;7.70;;;23.40;99.90;;;;;;9679162;30;20242;-82
2021/08/13 21:58:01;;;;;;;8.83;7.93;;;23.40;99.90;;;;;;9677762;30;20310;-82
2021/08/13 22:03:03;;;;;;;8.57;7.87;;;23.40;99.90;;;;;;9691963;30;20290;-82
2021/08/13 22:08:06;;;;;;;7.73;7.13;;;23.40;99.90;;;;;;9721782;30;20353;-82
2021/08/13 22:13:10;;;;;;;8.13;7.40;;;23.30;99.90;;;;;;9698669;30;20222;-81
2021/08/13 22:18:13;;;;;;;9.23;7.43;;;23.30;99.90;;;;;;9728487;30;20297;-82
2021/08/13 22:23:16;;;;;;;7.67;6.97;;;23.20;99.90;;;;;;9727746;30;20665;-82
2021/08/13 22:28:21;;;;;;;9.63;7.63;;;23.20;99.90;;;;;;9712120;30;20234;-82
2021/08/13 22:33:23;;;;;;;7.77;7.07;;;23.20;99.90;;;;;;9727536;30;20281;-82
2021/08/13 22:38:25;;;;;;;10.40;7.53;;;23.20;99.90;;;;;;9692380;30;20325;-82
2021/08/13 22:43:29;;;;;;;8.47;7.70;;;23.10;99.90;;;;;;9678775;30;20215;-82
2021/08/13 22:48:31;;;;;;;8.83;8.10;;;23.00;99.90;;;;;;9678662;30;20242;-82
2021/08/13 22:53:33;;;;;;;8.30;7.57;;;23.00;99.90;;;;;;9677571;30;20215;-82
2021/08/13 22:58:36;;;;;;;7.50;6.80;;;23.00;99.90;;;;;;9691682;30;20245;-82
2021/08/13 23:03:42;;;;;;;7.87;7.03;;;22.90;99.90;;;;;;9690988;30;20202;-82
2021/08/13 23:08:44;;;;;;;7.83;7.03;;;22.90;99.90;;;;;;9724777;30;20673;-82
2021/08/13 23:13:47;;;;;;;7.70;7.00;;;22.90;99.90;;;;;;9731118;30;20676;-82
2021/08/13 23:18:49;;;;;;;7.57;6.90;;;22.90;99.90;;;;;;9716767;30;20237;-82
2021/08/13 23:23:51;;;;;;;7.80;7.00;;;22.80;99.90;;;;;;9733064;30;20217;-82
2021/08/13 23:28:55;;;;;;;7.40;6.87;;;22.80;99.90;;;;;;9734579;30;20305;-82
2021/08/13 23:33:57;;;;;;;8.10;7.23;;;22.80;99.90;;;;;;9736932;30;20206;-82
2021/08/13 23:38:59;;;;;;;7.47;6.87;;;22.70;99.90;;;;;;9714275;25;20250;-82
2021/08/13 23:44:02;;;;;;;7.70;7.10;;;22.70;99.90;;;;;;9695727;30;20211;-82
2021/08/13 23:49:04;;;;;;;7.10;6.50;;;22.70;99.90;;;;;;9700258;30;20242;-82
2021/08/13 23:54:07;;;;;;;7.90;7.30;;;22.60;99.90;;;;;;9704712;30;20217;-82
2021/08/13 23:59:10;;;;;;;12.23;7.80;;;22.60;99.90;;;;;;9694412;30;20763;-82
